Time;durP1;ratioP1;P1;durP2;ratioP2;P2;SDS_P1;SDS_P2;PMS_P1;PMS_P2;Temp;Humidity;BMP_temperature;BMP_pressure;BME280_temperature;BME280_humidity;BME280_pressure;Samples;Min_cycle;Max_cycle;Signal;HPM_P1;HPM_P2
2022/04/27 00:00:49;;;;;;;15.13;6.53;;;7.90;99.90;;;;;;5062982;28;21057;-80
2022/04/27 00:03:15;;;;;;;12.82;6.57;;;7.40;99.90;;;;;;5059906;28;20098;-80
2022/04/27 00:05:40;;;;;;;14.00;6.30;;;7.40;99.90;;;;;;5053194;28;20406;-80
2022/04/27 00:08:06;;;;;;;15.80;7.10;;;7.40;99.90;;;;;;5071561;28;20051;-80
2022/04/27 00:10:32;;;;;;;17.23;7.38;;;7.50;99.90;;;;;;5053274;28;20439;-80
2022/04/27 00:12:58;;;;;;;16.10;7.35;;;7.50;99.90;;;;;;5037787;28;20045;-80
2022/04/27 00:15:26;;;;;;;16.20;7.28;;;7.50;99.90;;;;;;5051466;28;20063;-80
2022/04/27 00:17:52;;;;;;;15.95;7.20;;;7.50;99.90;;;;;;5049860;28;20079;-80
2022/04/27 00:20:18;;;;;;;17.00;7.60;;;7.60;99.90;;;;;;5055284;28;20146;-80
2022/04/27 00:22:43;;;;;;;15.98;7.30;;;8.20;99.90;;;;;;5026806;28;20115;-80
2022/04/27 00:25:09;;;;;;;17.85;7.28;;;7.50;99.90;;;;;;5066171;28;20043;-80
2022/04/27 00:27:35;;;;;;;19.08;8.27;;;7.60;99.90;;;;;;5060199;28;20032;-80
2022/04/27 00:30:00;;;;;;;17.73;7.78;;;7.60;99.90;;;;;;5051416;28;20047;-80
2022/04/27 00:32:26;;;;;;;14.52;7.13;;;7.60;99.90;;;;;;5069045;28;20097;-80
2022/04/27 00:34:52;;;;;;;15.35;7.57;;;7.60;99.90;;;;;;5052393;28;20059;-80
2022/04/27 00:37:18;;;;;;;14.80;7.93;;;8.50;99.90;;;;;;5054018;28;20056;-80
2022/04/27 00:39:45;;;;;;;18.85;8.02;;;7.70;99.90;;;;;;5076855;28;20040;-80
2022/04/27 00:42:15;;;;;;;14.25;6.95;;;7.70;99.90;;;;;;5073940;28;20067;-80
2022/04/27 00:44:43;;;;;;;13.05;6.55;;;7.70;99.90;;;;;;5041314;28;20036;-80
2022/04/27 00:47:13;;;;;;;15.13;6.85;;;7.70;99.90;;;;;;5049590;28;20042;-80
2022/04/27 00:49:45;;;;;;;15.60;6.47;;;7.70;99.90;;;;;;5067443;28;20041;-80
2022/04/27 00:52:12;;;;;;;16.48;6.60;;;7.70;99.90;;;;;;5080119;28;20039;-80
2022/04/27 00:54:42;;;;;;;16.00;6.55;;;7.70;99.90;;;;;;5071906;28;20028;-81
2022/04/27 00:57:09;;;;;;;13.20;6.72;;;7.70;99.90;;;;;;5071192;28;20039;-80
2022/04/27 00:59:35;;;;;;;14.90;6.45;;;7.70;99.90;;;;;;5072302;28;20255;-80
2022/04/27 01:02:01;;;;;;;15.98;6.20;;;7.70;99.90;;;;;;5081975;28;20109;-80
2022/04/27 01:04:28;;;;;;;11.65;6.00;;;7.80;99.90;;;;;;5049933;28;20052;-80
2022/04/27 01:06:54;;;;;;;13.50;6.25;;;7.80;99.90;;;;;;5053706;28;20055;-80
2022/04/27 01:09:23;;;;;;;13.18;6.45;;;7.80;99.90;;;;;;5069815;28;20048;-80
2022/04/27 01:11:48;;;;;;;15.52;6.35;;;7.80;99.90;;;;;;5071462;28;20120;-80
2022/04/27 01:14:14;;;;;;;12.18;5.97;;;7.80;99.90;;;;;;5053903;28;20115;-80
2022/04/27 01:16:40;;;;;;;12.23;6.00;;;7.80;99.90;;;;;;5069939;28;20048;-80
2022/04/27 01:19:06;;;;;;;15.88;6.43;;;7.80;99.90;;;;;;5082899;28;20272;-80
2022/04/27 01:21:33;;;;;;;16.15;6.80;;;7.80;99.90;;;;;;5071136;28;20500;-80
2022/04/27 01:23:59;;;;;;;18.98;7.78;;;7.80;99.90;;;;;;5069568;28;20500;-80
2022/04/27 01:26:24;;;;;;;21.20;7.20;;;7.90;99.90;;;;;;5087521;28;20040;-80
2022/04/27 01:28:50;;;;;;;13.43;6.78;;;7.80;99.90;;;;;;5065420;28;20035;-80
2022/04/27 01:31:16;;;;;;;14.00;7.07;;;7.80;99.90;;;;;;5054403;28;20085;-80
2022/04/27 01:33:42;;;;;;;13.25;6.68;;;7.90;99.90;;;;;;5068358;28;20113;-80
2022/04/27 01:36:10;;;;;;;12.90;6.15;;;7.80;99.90;;;;;;5079314;28;20525;-80
2022/04/27 01:38:41;;;;;;;13.80;6.63;;;7.90;99.90;;;;;;5085852;28;20044;-80
2022/04/27 01:41:08;;;;;;;12.05;6.28;;;8.00;99.90;;;;;;5079525;28;20070;-80
2022/04/27 01:43:35;;;;;;;17.67;7.22;;;7.90;99.90;;;;;;5052631;28;20044;-80
2022/04/27 01:46:02;;;;;;;12.00;6.10;;;7.90;99.90;;;;;;5060746;28;20041;-80
2022/04/27 01:48:27;;;;;;;13.05;6.32;;;8.80;99.90;;;;;;5057017;28;20036;-80
2022/04/27 01:50:54;;;;;;;13.80;6.70;;;7.90;99.90;;;;;;5055392;28;20028;-80
2022/04/27 01:56:05;;;;;;;13.75;6.28;;;7.90;99.90;;;;;;5073484;28;20048;-80
2022/04/27 01:58:30;;;;;;;13.85;6.18;;;7.90;99.90;;;;;;5083478;28;20044;-80
2022/04/27 02:00:56;;;;;;;14.05;6.60;;;7.90;99.90;;;;;;5047641;28;20036;-80
2022/04/27 02:03:22;;;;;;;12.75;6.18;;;7.90;99.90;;;;;;5066745;28;20039;-81
2022/04/27 02:05:49;;;;;;;14.82;6.88;;;7.90;99.90;;;;;;5063152;28;20099;-80
2022/04/27 02:08:16;;;;;;;13.90;6.07;;;7.90;99.90;;;;;;5050887;28;20507;-80
2022/04/27 02:10:42;;;;;;;15.00;7.10;;;7.90;99.90;;;;;;5040565;28;20036;-80
2022/04/27 02:13:09;;;;;;;16.60;6.80;;;7.90;99.90;;;;;;5053762;28;20745;-80
2022/04/27 02:15:36;;;;;;;17.48;6.43;;;8.00;99.90;;;;;;5083436;28;20084;-80
2022/04/27 02:18:02;;;;;;;15.32;6.57;;;8.00;99.90;;;;;;5050668;28;20036;-80
2022/04/27 02:20:29;;;;;;;16.25;7.05;;;8.00;99.90;;;;;;5056120;28;20400;-80
2022/04/27 02:22:55;;;;;;;13.88;7.05;;;8.00;99.90;;;;;;5087380;28;20075;-80
2022/04/27 02:25:22;;;;;;;13.88;6.40;;;8.40;99.90;;;;;;5053970;28;20047;-80
2022/04/27 02:27:49;;;;;;;13.13;6.68;;;8.00;99.90;;;;;;5085923;28;20047;-80
2022/04/27 02:30:16;;;;;;;12.55;6.20;;;8.00;99.90;;;;;;5071254;28;20075;-80
2022/04/27 02:32:42;;;;;;;13.02;6.18;;;8.00;99.90;;;;;;5033523;28;20032;-80
2022/04/27 02:35:08;;;;;;;12.85;6.75;;;8.40;99.90;;;;;;5087666;28;20040;-80
2022/04/27 02:37:35;;;;;;;13.82;6.47;;;8.00;99.90;;;;;;5073751;28;20047;-80
2022/04/27 02:40:03;;;;;;;13.48;6.55;;;8.10;99.90;;;;;;5075437;28;20092;-80
2022/04/27 02:42:29;;;;;;;13.55;6.82;;;7.90;99.90;;;;;;5080570;28;20037;-80
2022/04/27 02:44:58;;;;;;;14.32;6.97;;;8.50;99.90;;;;;;5088970;28;20047;-80
2022/04/27 02:47:24;;;;;;;13.18;7.07;;;7.90;99.90;;;;;;5069667;28;20047;-80
2022/04/27 02:52:34;;;;;;;12.18;6.45;;;7.90;99.90;;;;;;5078634;28;20036;-80
2022/04/27 02:55:00;;;;;;;13.88;6.63;;;7.90;99.90;;;;;;5063447;28;20029;-80
2022/04/27 02:57:25;;;;;;;13.63;6.00;;;8.00;99.90;;;;;;5089560;28;20081;-80
2022/04/27 02:59:52;;;;;;;12.98;6.35;;;8.00;99.90;;;;;;5053224;28;20047;-80
2022/04/27 03:02:17;;;;;;;15.10;6.43;;;7.90;99.90;;;;;;5068171;28;20041;-80
2022/04/27 03:04:43;;;;;;;14.88;5.88;;;8.00;99.90;;;;;;5053939;28;20114;-80
2022/04/27 03:07:09;;;;;;;14.77;5.65;;;8.00;99.90;;;;;;5053455;28;20047;-80
2022/04/27 03:09:35;;;;;;;13.07;5.50;;;8.00;99.90;;;;;;5068922;28;20036;-80
2022/04/27 03:12:01;;;;;;;11.57;5.30;;;8.00;99.90;;;;;;5082868;28;20090;-80
2022/04/27 03:14:30;;;;;;;11.95;5.60;;;8.10;99.90;;;;;;5068870;28;20047;-80
2022/04/27 03:16:56;;;;;;;13.05;5.60;;;8.00;99.90;;;;;;5090954;28;20043;-80
2022/04/27 03:19:22;;;;;;;12.32;5.32;;;8.00;99.90;;;;;;5045955;28;20052;-80
2022/04/27 03:21:48;;;;;;;14.30;5.57;;;8.10;99.90;;;;;;5084575;28;20041;-80
2022/04/27 03:24:14;;;;;;;14.23;5.90;;;8.00;99.90;;;;;;5067393;28;20063;-80
2022/04/27 03:26:40;;;;;;;13.45;5.65;;;8.10;99.90;;;;;;5063187;28;20509;-80
2022/04/27 03:29:06;;;;;;;12.20;5.57;;;8.10;99.90;;;;;;5068014;28;20119;-80
2022/04/27 03:31:32;;;;;;;10.63;4.97;;;8.10;99.90;;;;;;5071713;28;20036;-81
2022/04/27 03:33:58;;;;;;;10.13;4.75;;;8.00;99.90;;;;;;5082478;28;20216;-80
2022/04/27 03:36:25;;;;;;;10.18;4.70;;;8.10;99.90;;;;;;5069550;28;20101;-80
2022/04/27 03:38:51;;;;;;;11.73;4.88;;;8.10;99.90;;;;;;5064027;28;20111;-80
2022/04/27 03:41:20;;;;;;;10.48;4.47;;;8.10;99.90;;;;;;5053311;28;20115;-80
2022/04/27 03:43:47;;;;;;;10.45;4.45;;;8.10;99.90;;;;;;5064595;28;20058;-80
2022/04/27 03:46:13;;;;;;;11.13;4.45;;;8.10;99.90;;;;;;5049748;28;20089;-80
2022/04/27 03:48:39;;;;;;;10.73;4.82;;;8.10;99.90;;;;;;5072440;28;20048;-80
2022/04/27 03:51:05;;;;;;;12.30;4.22;;;9.00;99.90;;;;;;5036784;28;20081;-80
2022/04/27 03:53:31;;;;;;;11.95;4.22;;;8.70;99.90;;;;;;5054704;28;20497;-80
2022/04/27 03:55:56;;;;;;;11.00;3.75;;;8.10;99.90;;;;;;5047730;28;20128;-80
2022/04/27 03:58:22;;;;;;;11.23;3.95;;;8.10;99.90;;;;;;5046552;28;20389;-80
2022/04/27 04:00:48;;;;;;;8.38;3.60;;;8.30;99.90;;;;;;5071410;28;20092;-80
2022/04/27 04:03:14;;;;;;;11.65;3.70;;;8.30;99.90;;;;;;5080009;28;20113;-80
2022/04/27 04:05:41;;;;;;;10.00;3.80;;;8.10;99.90;;;;;;5072122;28;20271;-80
2022/04/27 04:08:07;;;;;;;10.07;3.75;;;8.10;99.90;;;;;;5076378;28;20118;-80
2022/04/27 04:10:34;;;;;;;11.32;3.80;;;8.10;99.90;;;;;;5070064;28;20528;-80
2022/04/27 04:12:59;;;;;;;10.85;3.60;;;8.10;99.90;;;;;;5057649;28;20036;-80
2022/04/27 04:15:25;;;;;;;9.95;3.00;;;8.80;99.90;;;;;;5068857;28;20178;-81
2022/04/27 04:17:51;;;;;;;9.38;3.60;;;8.10;99.90;;;;;;5061436;28;20491;-80
2022/04/27 04:20:18;;;;;;;11.85;3.25;;;9.10;99.90;;;;;;5045584;28;20075;-80
2022/04/27 04:22:45;;;;;;;10.20;3.15;;;8.10;99.90;;;;;;5070381;28;20039;-80
2022/04/27 04:30:41;;;;;;;6.93;2.70;;;8.10;99.90;;;;;;5087005;28;20100;-80
2022/04/27 04:33:07;;;;;;;9.05;3.00;;;8.20;99.90;;;;;;5084310;28;20105;-80
2022/04/27 04:35:33;;;;;;;7.32;2.92;;;8.10;99.90;;;;;;5069029;28;20092;-80
2022/04/27 04:37:59;;;;;;;8.98;3.00;;;8.60;99.90;;;;;;5071850;28;20032;-80
2022/04/27 04:40:25;;;;;;;10.27;3.38;;;8.30;99.90;;;;;;5069213;28;20080;-80
2022/04/27 04:42:52;;;;;;;11.15;3.00;;;8.20;99.90;;;;;;5052072;28;20087;-80
2022/04/27 04:45:18;;;;;;;7.55;3.20;;;8.20;99.90;;;;;;5058698;28;20040;-80
2022/04/27 04:47:44;;;;;;;10.75;3.45;;;8.20;99.90;;;;;;5070671;28;20028;-80
2022/04/27 04:50:11;;;;;;;10.73;3.20;;;8.20;99.90;;;;;;5036692;28;20052;-80
2022/04/27 04:52:36;;;;;;;9.43;3.10;;;8.20;99.90;;;;;;5058649;28;20037;-80
2022/04/27 04:55:03;;;;;;;9.90;3.25;;;8.20;99.90;;;;;;5058552;28;20043;-80
2022/04/27 04:57:29;;;;;;;8.82;3.35;;;8.20;99.90;;;;;;5086008;28;20405;-80
2022/04/27 04:59:54;;;;;;;9.77;3.40;;;8.20;99.90;;;;;;5082103;28;20036;-80
2022/04/27 05:02:20;;;;;;;9.90;3.25;;;8.20;99.90;;;;;;5065741;28;20048;-80
2022/04/27 05:04:46;;;;;;;8.38;3.30;;;8.20;99.90;;;;;;5060887;28;20056;-80
2022/04/27 05:07:12;;;;;;;9.23;3.20;;;8.20;99.90;;;;;;5051238;28;20080;-80
2022/04/27 05:09:38;;;;;;;8.85;3.33;;;8.30;99.90;;;;;;5075715;28;20033;-80
2022/04/27 05:12:04;;;;;;;10.25;3.20;;;8.30;99.90;;;;;;5062620;28;20553;-80
2022/04/27 05:14:30;;;;;;;8.45;3.38;;;8.30;99.90;;;;;;5048263;28;20033;-81
2022/04/27 05:16:56;;;;;;;8.40;2.90;;;8.30;99.90;;;;;;5065694;28;20040;-80
2022/04/27 05:19:23;;;;;;;9.18;3.33;;;9.20;99.90;;;;;;5060025;28;20147;-80
2022/04/27 05:21:49;;;;;;;10.48;3.40;;;8.40;99.90;;;;;;5067951;28;20043;-80
2022/04/27 05:24:15;;;;;;;9.55;3.45;;;8.40;99.90;;;;;;5063526;28;20412;-80
2022/04/27 05:26:41;;;;;;;8.98;3.55;;;8.40;99.90;;;;;;5067665;28;20412;-80
2022/04/27 05:31:54;;;;;;;9.18;3.40;;;8.50;99.90;;;;;;5069173;28;20123;-80
2022/04/27 05:34:20;;;;;;;9.05;3.35;;;8.50;99.90;;;;;;5067618;28;20038;-80
2022/04/27 05:36:46;;;;;;;8.50;3.05;;;8.70;99.90;;;;;;5060051;28;20152;-80
2022/04/27 05:39:12;;;;;;;9.73;3.35;;;8.60;99.90;;;;;;5050189;28;20563;-80
2022/04/27 05:41:38;;;;;;;8.10;3.10;;;8.60;99.90;;;;;;5065119;28;20048;-80
2022/04/27 05:44:09;;;;;;;8.98;3.33;;;8.60;99.90;;;;;;5047624;28;20561;-79
2022/04/27 05:46:39;;;;;;;9.75;3.35;;;8.60;99.90;;;;;;5052503;28;20102;-80
2022/04/27 05:49:05;;;;;;;10.38;3.33;;;8.70;99.90;;;;;;5071656;28;20071;-80
2022/04/27 05:51:30;;;;;;;9.25;3.38;;;8.80;99.90;;;;;;5083205;28;20067;-80
2022/04/27 05:53:57;;;;;;;7.18;2.80;;;8.80;99.90;;;;;;5048593;28;20478;-80
2022/04/27 05:56:23;;;;;;;7.57;2.20;;;8.80;99.90;;;;;;5054634;28;20118;-80
2022/04/27 05:58:49;;;;;;;7.25;2.20;;;8.80;99.90;;;;;;5073811;28;20040;-80
2022/04/27 06:01:15;;;;;;;7.38;2.22;;;8.80;99.90;;;;;;5065879;28;20559;-80
2022/04/27 06:03:41;;;;;;;8.07;2.42;;;8.80;99.90;;;;;;5054782;28;20056;-80
2022/04/27 06:06:07;;;;;;;7.75;2.70;;;8.90;99.90;;;;;;5079337;28;20047;-80
2022/04/27 06:08:33;;;;;;;10.50;2.90;;;8.90;99.90;;;;;;5063326;28;20111;-80
2022/04/27 06:10:58;;;;;;;10.35;2.67;;;9.00;99.90;;;;;;5070451;28;20677;-80
2022/04/27 06:13:24;;;;;;;9.10;3.10;;;9.00;99.90;;;;;;5069422;28;20042;-80
2022/04/27 06:15:50;;;;;;;8.93;2.78;;;9.00;99.90;;;;;;5058480;28;20397;-80
2022/04/27 06:18:16;;;;;;;9.95;2.95;;;9.00;99.90;;;;;;5071499;28;20071;-80
2022/04/27 06:20:42;;;;;;;7.65;2.42;;;9.10;99.90;;;;;;5056529;28;20084;-80
2022/04/27 06:23:09;;;;;;;9.20;2.63;;;9.10;99.90;;;;;;5090656;28;20048;-80
2022/04/27 06:25:35;;;;;;;9.43;2.50;;;9.10;99.90;;;;;;5055108;28;20512;-81
2022/04/27 06:28:02;;;;;;;6.50;2.20;;;9.10;99.90;;;;;;5046813;28;20041;-80
2022/04/27 06:30:28;;;;;;;7.60;2.50;;;9.20;99.90;;;;;;5066070;28;20066;-80
2022/04/27 06:32:54;;;;;;;8.05;2.50;;;9.20;99.90;;;;;;5058186;28;20109;-80
2022/04/27 06:35:20;;;;;;;8.45;2.58;;;9.20;99.90;;;;;;5074395;28;20277;-80
2022/04/27 06:37:45;;;;;;;8.68;2.75;;;9.30;99.90;;;;;;5069921;28;20059;-80
2022/04/27 06:40:12;;;;;;;7.07;2.40;;;9.30;99.90;;;;;;5034101;28;20040;-80
2022/04/27 06:42:44;;;;;;;8.65;2.45;;;9.40;99.90;;;;;;5057452;28;20043;-80
2022/04/27 06:45:11;;;;;;;6.80;2.42;;;9.40;99.90;;;;;;5068828;28;20052;-80
2022/04/27 06:47:37;;;;;;;8.00;2.85;;;9.40;99.90;;;;;;5088460;28;20040;-80
2022/04/27 06:50:04;;;;;;;7.95;2.60;;;9.40;99.90;;;;;;5090668;28;20036;-80
2022/04/27 06:52:30;;;;;;;8.65;3.10;;;9.50;99.90;;;;;;5072511;28;20556;-79
2022/04/27 06:54:55;;;;;;;8.40;2.65;;;9.50;99.90;;;;;;5062355;28;20120;-80
2022/04/27 06:57:21;;;;;;;7.22;2.30;;;10.50;99.90;;;;;;5056386;28;20127;-80
2022/04/27 06:59:47;;;;;;;7.18;2.05;;;9.50;99.90;;;;;;5051890;28;20093;-80
2022/04/27 07:02:14;;;;;;;6.10;2.05;;;9.50;99.90;;;;;;5032656;28;20043;-79
2022/04/27 07:04:48;;;;;;;8.80;2.72;;;9.50;99.90;;;;;;5078612;28;20547;-79
2022/04/27 07:07:14;;;;;;;8.00;2.40;;;9.50;99.90;;;;;;5076032;28;20076;-80
2022/04/27 07:09:40;;;;;;;7.00;2.55;;;9.60;99.90;;;;;;5060832;28;20068;-80
2022/04/27 07:12:06;;;;;;;6.28;2.25;;;9.70;99.90;;;;;;5075973;28;20083;-80
2022/04/27 07:14:32;;;;;;;6.65;2.30;;;9.70;99.90;;;;;;5052412;28;20068;-80
2022/04/27 07:16:58;;;;;;;7.30;2.40;;;9.70;99.90;;;;;;5051124;28;20036;-80
2022/04/27 07:19:23;;;;;;;7.10;2.50;;;9.80;99.90;;;;;;5085091;28;20044;-80
2022/04/27 07:21:49;;;;;;;10.00;2.40;;;9.80;99.90;;;;;;5061570;28;20048;-79
2022/04/27 07:24:15;;;;;;;7.93;2.20;;;9.90;99.90;;;;;;5055480;28;20060;-78
2022/04/27 07:26:40;;;;;;;10.70;2.20;;;9.90;99.90;;;;;;5054945;28;20051;-80
2022/04/27 07:29:08;;;;;;;6.95;2.00;;;10.00;99.90;;;;;;5051312;28;20036;-80
2022/04/27 07:31:34;;;;;;;5.97;2.00;;;10.00;99.90;;;;;;5071377;28;20047;-80
2022/04/27 07:33:59;;;;;;;5.10;1.80;;;10.00;99.90;;;;;;5071974;28;20037;-80
2022/04/27 07:36:25;;;;;;;6.45;1.95;;;10.00;99.90;;;;;;5070552;28;20536;-80
2022/04/27 07:38:51;;;;;;;6.53;2.10;;;10.00;99.90;;;;;;5073462;28;20157;-79
2022/04/27 07:41:16;;;;;;;8.50;1.92;;;10.00;99.90;;;;;;5036312;28;20123;-79
2022/04/27 07:43:42;;;;;;;8.95;2.10;;;10.10;99.90;;;;;;5054966;28;20135;-79
2022/04/27 07:46:09;;;;;;;5.63;2.08;;;10.10;99.90;;;;;;5057250;28;20041;-78
2022/04/27 07:48:37;;;;;;;9.60;2.10;;;10.20;99.90;;;;;;5057880;28;20036;-80
2022/04/27 07:51:07;;;;;;;8.80;2.50;;;10.30;99.90;;;;;;5057136;28;20036;-80
2022/04/27 07:53:33;;;;;;;8.45;2.20;;;10.40;99.90;;;;;;5053181;28;20039;-79
2022/04/27 07:55:59;;;;;;;8.40;2.00;;;10.40;99.90;;;;;;5063249;28;20048;-79
2022/04/27 07:58:25;;;;;;;7.55;2.00;;;10.50;99.90;;;;;;5047630;28;20157;-79
2022/04/27 08:00:50;;;;;;;7.50;2.03;;;10.50;99.90;;;;;;5071201;28;20036;-80
2022/04/27 08:03:16;;;;;;;8.40;2.40;;;10.50;99.90;;;;;;5065018;28;20034;-79
2022/04/27 08:05:42;;;;;;;8.93;2.70;;;10.50;99.90;;;;;;5054426;28;20051;-80
2022/04/27 08:08:08;;;;;;;7.18;2.60;;;10.60;99.90;;;;;;5069776;28;20036;-81
2022/04/27 08:10:34;;;;;;;8.52;2.70;;;10.60;99.90;;;;;;5077024;28;20512;-81
2022/04/27 08:13:00;;;;;;;9.57;2.72;;;10.60;99.90;;;;;;5075313;28;20051;-80
2022/04/27 08:15:26;;;;;;;7.75;2.20;;;10.60;99.90;;;;;;5060460;28;20595;-80
2022/04/27 08:18:01;;;;;;;10.48;2.63;;;10.70;99.90;;;;;;5047758;28;20110;-81
2022/04/27 08:23:20;;;;;;;8.88;2.60;;;10.70;99.90;;;;;;5071061;28;20124;-81
2022/04/27 08:25:46;;;;;;;7.68;2.58;;;10.70;99.90;;;;;;5050297;28;20174;-79
2022/04/27 08:28:12;;;;;;;7.50;2.40;;;10.80;99.90;;;;;;5052800;28;20517;-79
2022/04/27 08:30:41;;;;;;;8.63;2.40;;;10.80;99.90;;;;;;5076601;28;20032;-79
2022/04/27 08:33:07;;;;;;;7.40;2.70;;;10.90;99.90;;;;;;5080411;28;20382;-79
2022/04/27 08:35:34;;;;;;;8.77;2.47;;;10.90;99.90;;;;;;5059954;28;20108;-79
2022/04/27 08:38:00;;;;;;;8.68;2.50;;;11.00;99.90;;;;;;5072397;28;20545;-79
2022/04/27 08:40:30;;;;;;;7.75;2.25;;;11.00;99.90;;;;;;5059228;28;20279;-79
2022/04/27 08:42:59;;;;;;;9.10;2.60;;;11.00;99.90;;;;;;5086492;28;20401;-79
2022/04/27 08:45:26;;;;;;;7.47;2.30;;;11.10;99.90;;;;;;5058701;28;20036;-79
2022/04/27 08:47:51;;;;;;;6.47;2.35;;;11.00;99.90;;;;;;5052671;28;20047;-79
2022/04/27 08:50:23;;;;;;;7.18;2.20;;;11.10;99.90;;;;;;5055033;28;20032;-80
2022/04/27 08:52:49;;;;;;;6.85;2.10;;;11.10;99.90;;;;;;5089054;28;20047;-79
2022/04/27 08:55:16;;;;;;;10.77;2.30;;;11.00;99.90;;;;;;5077057;28;20484;-79
2022/04/27 08:57:43;;;;;;;7.45;1.92;;;10.90;99.90;;;;;;5089142;28;20052;-79
2022/04/27 09:00:14;;;;;;;8.85;2.22;;;10.80;99.90;;;;;;5070160;28;20066;-79
2022/04/27 09:02:40;;;;;;;10.13;2.38;;;10.70;99.90;;;;;;5071292;28;20114;-79
2022/04/27 09:05:21;;;;;;;11.07;2.40;;;10.70;99.90;;;;;;5071428;28;20043;-80
2022/04/27 09:07:57;;;;;;;10.27;2.38;;;10.70;99.90;;;;;;5071223;28;20039;-79
2022/04/27 09:10:25;;;;;;;10.00;2.42;;;10.70;99.90;;;;;;4722455;28;9999673;-79
2022/04/27 09:12:55;;;;;;;8.82;2.42;;;10.80;99.90;;;;;;5060439;28;21386;-79
2022/04/27 09:15:26;;;;;;;12.20;2.60;;;10.80;99.90;;;;;;5078316;28;20044;-79
2022/04/27 09:20:50;;;;;;;13.63;3.33;;;10.90;99.90;;;;;;5071766;28;20072;-79
2022/04/27 09:23:40;;;;;;;11.55;2.75;;;11.00;99.90;;;;;;5078498;28;20505;-79
2022/04/27 09:26:17;;;;;;;12.15;2.90;;;11.00;99.90;;;;;;5059661;28;20048;-79
2022/04/27 09:28:47;;;;;;;12.35;2.75;;;11.00;99.90;;;;;;5062946;28;20192;-80
2022/04/27 09:31:29;;;;;;;10.10;3.03;;;11.10;99.90;;;;;;5080779;28;20036;-79
2022/04/27 09:34:00;;;;;;;9.80;2.78;;;11.20;99.90;;;;;;5070206;28;20033;-80
2022/04/27 09:36:26;;;;;;;13.40;3.38;;;11.20;99.90;;;;;;5051638;28;20051;-79
2022/04/27 09:38:53;;;;;;;9.75;2.90;;;11.10;99.90;;;;;;5053711;28;20047;-79
2022/04/27 09:41:42;;;;;;;11.20;2.90;;;11.10;99.90;;;;;;5083143;28;20059;-80
2022/04/27 09:44:30;;;;;;;9.13;2.95;;;11.20;99.90;;;;;;5055845;28;20041;-79
2022/04/27 09:46:57;;;;;;;12.05;2.97;;;11.20;99.90;;;;;;5056307;28;20032;-79
2022/04/27 09:49:23;;;;;;;12.13;3.17;;;11.10;99.90;;;;;;5060512;28;20033;-79
2022/04/27 09:51:54;;;;;;;11.55;2.80;;;11.20;99.90;;;;;;5063114;28;20058;-80
2022/04/27 09:54:28;;;;;;;13.73;3.42;;;11.20;99.90;;;;;;5056764;28;20031;-80
2022/04/27 09:56:56;;;;;;;14.63;2.95;;;11.10;99.90;;;;;;5069278;28;20036;-80
2022/04/27 09:59:26;;;;;;;10.57;3.05;;;11.10;99.90;;;;;;5056283;28;20040;-79
2022/04/27 10:01:54;;;;;;;11.25;3.10;;;11.20;99.90;;;;;;5056814;28;20175;-80
2022/04/27 10:04:23;;;;;;;9.95;2.78;;;11.10;99.90;;;;;;5082341;28;20123;-79
2022/04/27 10:06:50;;;;;;;14.75;2.70;;;11.00;99.90;;;;;;5060737;28;20485;-80
2022/04/27 10:09:16;;;;;;;10.85;2.67;;;10.90;99.90;;;;;;5065809;28;20028;-80
2022/04/27 10:11:43;;;;;;;13.82;2.80;;;10.90;99.90;;;;;;5074087;28;20052;-80
2022/04/27 10:14:09;;;;;;;11.68;2.55;;;10.90;99.90;;;;;;5078636;28;20401;-80
2022/04/27 10:16:35;;;;;;;12.38;2.95;;;11.00;99.90;;;;;;5038036;28;20047;-80
2022/04/27 10:19:01;;;;;;;10.70;2.88;;;11.10;99.90;;;;;;5075999;28;20052;-80
2022/04/27 10:21:39;;;;;;;13.30;2.47;;;11.00;99.90;;;;;;5086922;28;20578;-80
2022/04/27 10:24:07;;;;;;;11.77;2.90;;;11.00;99.90;;;;;;5034690;28;20041;-80
2022/04/27 10:26:32;;;;;;;13.27;2.72;;;11.00;99.90;;;;;;5053082;28;20044;-80
2022/04/27 10:29:01;;;;;;;11.80;2.83;;;11.00;99.90;;;;;;5056293;28;20041;-80
2022/04/27 10:31:48;;;;;;;10.15;2.78;;;10.90;99.90;;;;;;5070089;28;20036;-80
2022/04/27 10:34:25;;;;;;;10.80;2.80;;;10.90;99.90;;;;;;5064134;28;20081;-80
2022/04/27 10:36:56;;;;;;;11.90;2.60;;;11.00;99.90;;;;;;5078680;28;20060;-80
2022/04/27 10:39:24;;;;;;;13.35;3.00;;;11.00;99.90;;;;;;5068141;28;20400;-81
2022/04/27 10:42:03;;;;;;;12.82;3.30;;;11.00;99.90;;;;;;5051558;28;20047;-80
2022/04/27 10:44:48;;;;;;;14.90;2.78;;;10.90;99.90;;;;;;5068024;28;20040;-79
2022/04/27 10:47:16;;;;;;;13.65;2.83;;;10.90;99.90;;;;;;5064335;28;20123;-79
2022/04/27 10:49:42;;;;;;;13.07;2.63;;;10.90;99.90;;;;;;5054617;28;20066;-80
2022/04/27 10:52:10;;;;;;;12.77;3.00;;;10.80;99.90;;;;;;5055118;28;20068;-80
2022/04/27 10:54:37;;;;;;;12.23;2.67;;;10.70;99.90;;;;;;5055952;28;20036;-80
2022/04/27 10:57:15;;;;;;;15.52;3.10;;;10.70;99.90;;;;;;5059867;28;20056;-80
2022/04/27 11:00:11;;;;;;;14.15;2.60;;;10.70;99.90;;;;;;5056451;28;20112;-80
2022/04/27 11:02:44;;;;;;;10.57;2.72;;;10.60;99.90;;;;;;5066332;28;20087;-80
2022/04/27 11:05:10;;;;;;;16.25;2.92;;;10.60;99.90;;;;;;5070589;28;20139;-80
2022/04/27 11:07:41;;;;;;;14.57;2.97;;;10.60;99.90;;;;;;5072886;28;20135;-80
2022/04/27 11:10:15;;;;;;;14.30;3.25;;;10.60;99.90;;;;;;5065411;28;20086;-80
2022/04/27 11:12:44;;;;;;;11.88;2.60;;;10.50;99.90;;;;;;5085229;28;20047;-80
2022/04/27 11:15:11;;;;;;;12.38;2.90;;;10.60;99.90;;;;;;5087835;28;20040;-80
2022/04/27 11:17:38;;;;;;;12.05;2.65;;;10.70;99.90;;;;;;5072300;28;20122;-80
2022/04/27 11:20:05;;;;;;;13.60;3.40;;;10.80;99.90;;;;;;5048330;28;20037;-80
2022/04/27 11:22:38;;;;;;;14.13;2.92;;;10.80;99.90;;;;;;5066298;28;20112;-80
2022/04/27 11:25:08;;;;;;;14.38;3.22;;;10.80;99.90;;;;;;5061742;28;20128;-80
2022/04/27 11:27:35;;;;;;;12.80;2.85;;;10.70;99.90;;;;;;5062041;28;20538;-80
2022/04/27 11:30:03;;;;;;;13.20;3.13;;;10.80;99.90;;;;;;5067776;28;20032;-80
2022/04/27 11:32:29;;;;;;;13.45;2.80;;;10.80;99.90;;;;;;5067875;28;20043;-80
2022/04/27 11:34:54;;;;;;;12.68;2.80;;;10.80;99.90;;;;;;5067651;28;20040;-80
2022/04/27 11:37:21;;;;;;;12.70;2.65;;;10.80;99.90;;;;;;5049073;28;20128;-80
2022/04/27 11:39:48;;;;;;;10.63;2.80;;;10.80;99.90;;;;;;5064703;28;20482;-79
2022/04/27 11:42:16;;;;;;;13.50;3.10;;;10.80;99.90;;;;;;5048692;28;20537;-80
2022/04/27 11:44:52;;;;;;;11.70;3.05;;;10.80;99.90;;;;;;5080470;28;20044;-80
2022/04/27 11:47:31;;;;;;;13.93;3.00;;;10.80;99.90;;;;;;5082387;28;20037;-80
2022/04/27 11:49:59;;;;;;;10.77;2.58;;;10.80;99.90;;;;;;5049879;28;20028;-80
2022/04/27 11:52:25;;;;;;;12.27;3.10;;;10.80;99.90;;;;;;5090249;28;20404;-79
2022/04/27 11:54:51;;;;;;;10.75;3.20;;;10.90;99.90;;;;;;5082164;28;20039;-79
2022/04/27 11:57:22;;;;;;;11.23;2.83;;;11.00;99.90;;;;;;5064298;28;20142;-79
2022/04/27 11:59:49;;;;;;;10.90;2.88;;;11.00;99.90;;;;;;5065514;28;20040;-79
2022/04/27 12:02:22;;;;;;;12.10;3.00;;;10.90;99.90;;;;;;5090228;28;20090;-79
2022/04/27 12:04:49;;;;;;;11.30;3.13;;;10.90;99.90;;;;;;5081312;28;20109;-79
2022/04/27 12:07:16;;;;;;;13.00;2.95;;;10.90;99.90;;;;;;5056373;28;20127;-79
2022/04/27 12:09:58;;;;;;;11.88;2.70;;;10.90;99.90;;;;;;5089044;28;20051;-79
2022/04/27 12:12:27;;;;;;;15.90;3.20;;;11.00;99.90;;;;;;5069595;28;20464;-79
2022/04/27 12:14:55;;;;;;;11.45;3.00;;;11.00;99.90;;;;;;5053048;28;20060;-79
2022/04/27 12:17:47;;;;;;;12.65;2.80;;;11.20;99.90;;;;;;5046578;28;20052;-79
2022/04/27 12:20:36;;;;;;;15.00;3.00;;;11.10;99.90;;;;;;5052805;28;20437;-79
2022/04/27 12:23:08;;;;;;;10.68;2.60;;;11.20;99.90;;;;;;5069591;28;20432;-79
2022/04/27 12:25:42;;;;;;;11.57;2.88;;;11.20;99.90;;;;;;5068304;28;20044;-79
2022/04/27 12:28:11;;;;;;;12.52;2.60;;;11.30;99.90;;;;;;5069042;28;20481;-80
2022/04/27 12:30:43;;;;;;;11.82;2.97;;;11.30;99.90;;;;;;5069048;28;20271;-80
2022/04/27 12:33:12;;;;;;;11.32;2.70;;;11.40;99.90;;;;;;5053187;28;20109;-79
2022/04/27 12:38:27;;;;;;;15.60;3.17;;;11.50;99.90;;;;;;5066432;28;20277;-80
2022/04/27 12:40:53;;;;;;;11.90;3.08;;;11.60;99.90;;;;;;5052208;28;20593;-79
2022/04/27 12:43:20;;;;;;;12.43;3.10;;;12.00;99.90;;;;;;5035815;28;20360;-80
2022/04/27 12:46:03;;;;;;;11.77;2.80;;;11.80;99.90;;;;;;5067463;28;20420;-80
2022/04/27 12:48:31;;;;;;;10.73;2.85;;;11.90;99.90;;;;;;5050336;28;20041;-80
2022/04/27 12:51:00;;;;;;;9.77;2.30;;;11.90;99.90;;;;;;5016052;28;20067;-80
2022/04/27 12:53:26;;;;;;;12.80;2.80;;;11.80;99.90;;;;;;5067222;28;20432;-79
2022/04/27 12:56:04;;;;;;;12.18;2.80;;;11.80;99.90;;;;;;5049071;28;20555;-79
2022/04/27 12:58:30;;;;;;;8.60;2.42;;;12.00;99.90;;;;;;5035559;28;20409;-80
2022/04/27 13:00:56;;;;;;;12.52;2.70;;;12.10;99.90;;;;;;5043814;28;20032;-80
2022/04/27 13:03:23;;;;;;;14.40;2.78;;;12.30;99.90;;;;;;5035874;28;20274;-80
2022/04/27 13:05:50;;;;;;;13.90;2.95;;;12.40;99.90;;;;;;5034436;28;20571;-80
2022/04/27 13:08:16;;;;;;;11.95;3.15;;;12.60;99.90;;;;;;5034202;28;20147;-80
2022/04/27 13:13:29;;;;;;;9.15;3.15;;;12.90;99.90;;;;;;5056435;28;20048;-79